Time;durP1;ratioP1;P1;durP2;ratioP2;P2;SDS_P1;SDS_P2;PMS_P1;PMS_P2;Temp;Humidity;BMP_temperature;BMP_pressure;BME280_temperature;BME280_humidity;BME280_pressure;Samples;Min_cycle;Max_cycle;Signal;HPM_P1;HPM_P2
2023/05/13 00:01:40;;;;;;;9.63;5.20;;;15.20;99.90;;;;;;5115115;28;20462;-82
2023/05/13 00:04:07;;;;;;;8.57;4.90;;;15.20;99.90;;;;;;5106792;28;20962;-82
2023/05/13 00:06:35;;;;;;;6.07;4.80;;;15.10;99.90;;;;;;5098697;28;20506;-83
2023/05/13 00:09:04;;;;;;;5.47;5.07;;;15.10;99.90;;;;;;5109076;28;20527;-82
2023/05/13 00:11:31;;;;;;;5.70;4.90;;;15.10;99.90;;;;;;5114595;28;20524;-83
2023/05/13 00:13:57;;;;;;;9.80;5.50;;;15.00;99.90;;;;;;5106253;28;20452;-82
2023/05/13 00:16:26;;;;;;;7.60;5.27;;;15.00;99.90;;;;;;5102065;28;20510;-84
2023/05/13 00:18:53;;;;;;;5.90;5.30;;;14.90;99.90;;;;;;5102875;28;20499;-84
2023/05/13 00:21:20;;;;;;;13.00;5.60;;;14.90;99.90;;;;;;5100858;28;20444;-83
2023/05/13 00:23:47;;;;;;;6.07;4.90;;;15.00;99.90;;;;;;5102097;28;20444;-83
2023/05/13 00:26:15;;;;;;;5.87;5.27;;;14.80;99.90;;;;;;5102515;28;20998;-83
2023/05/13 00:28:41;;;;;;;8.53;5.13;;;14.80;99.90;;;;;;5102422;28;20919;-83
2023/05/13 00:31:10;;;;;;;5.40;4.87;;;14.80;99.90;;;;;;5102253;28;20444;-83
2023/05/13 00:33:37;;;;;;;7.43;4.80;;;14.80;99.90;;;;;;5101980;28;20539;-83
2023/05/13 00:36:05;;;;;;;9.27;5.30;;;14.70;99.90;;;;;;5102289;28;20468;-83
2023/05/13 00:38:31;;;;;;;5.63;5.10;;;14.70;99.90;;;;;;5103904;28;20516;-83
2023/05/13 00:40:58;;;;;;;5.17;4.50;;;14.70;99.90;;;;;;5103285;28;20451;-83
2023/05/13 00:43:27;;;;;;;6.13;5.13;;;14.70;99.90;;;;;;5102181;28;20451;-83
2023/05/13 00:45:53;;;;;;;7.17;5.00;;;14.60;1.00;;;;;;5107581;28;20472;-82
2023/05/13 00:48:21;;;;;;;7.77;5.87;;;14.60;99.90;;;;;;5101586;28;20490;-83
2023/05/13 00:50:48;;;;;;;7.30;5.40;;;14.60;99.90;;;;;;5101896;28;20448;-83
2023/05/13 00:53:16;;;;;;;7.97;5.73;;;14.60;99.90;;;;;;5103180;28;20947;-83
2023/05/13 00:55:43;;;;;;;5.70;5.20;;;14.90;99.90;;;;;;5101849;28;20472;-83
2023/05/13 00:58:11;;;;;;;13.37;6.20;;;14.60;99.90;;;;;;5100891;28;20448;-83
2023/05/13 01:00:47;;;;;;;10.77;5.93;;;14.60;99.90;;;;;;5107157;28;20448;-83
2023/05/13 01:03:21;;;;;;;5.97;4.83;;;14.60;99.90;;;;;;5101960;28;20443;-82
2023/05/13 01:06:03;;;;;;;6.97;5.33;;;14.40;1.00;;;;;;5101202;28;20437;-83
2023/05/13 01:08:51;;;;;;;7.53;5.20;;;14.50;99.90;;;;;;5103747;28;20464;-82
2023/05/13 01:11:22;;;;;;;6.17;5.53;;;14.50;99.90;;;;;;5100782;28;20455;-82
2023/05/13 01:13:52;;;;;;;7.17;5.80;;;14.50;99.90;;;;;;5101854;28;20436;-83
2023/05/13 01:16:27;;;;;;;8.33;5.60;;;14.40;99.90;;;;;;5103021;28;20472;-83
2023/05/13 01:18:58;;;;;;;12.13;5.67;;;14.70;1.00;;;;;;5109877;28;20854;-83
2023/05/13 01:21:27;;;;;;;9.23;6.23;;;14.40;99.90;;;;;;5104031;28;20464;-83
2023/05/13 01:23:54;;;;;;;6.10;5.60;;;14.40;99.90;;;;;;5101979;28;20444;-83
2023/05/13 01:26:23;;;;;;;6.97;5.07;;;14.30;1.00;;;;;;5101292;28;20513;-83
2023/05/13 01:28:50;;;;;;;6.73;5.10;;;14.40;99.90;;;;;;5106347;28;20505;-82
2023/05/13 01:31:18;;;;;;;7.73;6.23;;;14.30;99.90;;;;;;5116985;28;20447;-82
2023/05/13 01:33:46;;;;;;;5.87;5.37;;;14.30;99.90;;;;;;5118575;28;20513;-81
2023/05/13 01:36:13;;;;;;;9.53;5.93;;;14.20;1.00;;;;;;5118713;28;20471;-83
2023/05/13 01:38:42;;;;;;;8.50;5.70;;;14.40;99.90;;;;;;5119693;28;20416;-82
2023/05/13 01:41:11;;;;;;;5.70;5.20;;;14.30;99.90;;;;;;5118326;28;20459;-82
2023/05/13 01:43:38;;;;;;;7.53;5.83;;;14.30;99.90;;;;;;5112893;28;20470;-83
2023/05/13 01:46:11;;;;;;;6.73;5.40;;;14.30;99.90;;;;;;5103492;28;20840;-83
2023/05/13 01:48:38;;;;;;;10.30;5.90;;;14.30;99.90;;;;;;5105979;28;20468;-83
2023/05/13 01:51:05;;;;;;;8.90;6.00;;;14.20;99.90;;;;;;5106416;28;20444;-83
2023/05/13 01:53:32;;;;;;;5.63;5.00;;;14.20;99.90;;;;;;5107647;28;20483;-82
2023/05/13 01:56:00;;;;;;;7.43;5.43;;;14.20;99.90;;;;;;5108299;28;20465;-82
2023/05/13 01:58:27;;;;;;;11.17;5.90;;;14.20;99.90;;;;;;5100191;28;20484;-83
2023/05/13 02:00:54;;;;;;;7.23;5.43;;;14.20;99.90;;;;;;5100485;28;20818;-83
2023/05/13 02:03:21;;;;;;;8.33;5.43;;;14.30;99.90;;;;;;5100268;28;20879;-83
2023/05/13 02:05:48;;;;;;;7.63;5.30;;;14.60;1.00;;;;;;5099757;28;20444;-84
2023/05/13 02:08:15;;;;;;;15.00;6.47;;;14.20;99.90;;;;;;5102227;28;20513;-82
2023/05/13 02:10:42;;;;;;;7.53;5.67;;;14.20;1.00;;;;;;5103990;28;20511;-82
2023/05/13 02:13:10;;;;;;;8.73;5.60;;;14.10;99.90;;;;;;5105276;28;20476;-84
2023/05/13 02:15:37;;;;;;;6.63;5.03;;;14.10;99.90;;;;;;5103742;28;20452;-82
2023/05/13 02:18:04;;;;;;;6.20;5.60;;;14.00;99.90;;;;;;5100788;28;20460;-83
2023/05/13 02:20:31;;;;;;;5.93;5.40;;;14.00;99.90;;;;;;5102941;28;20519;-83
2023/05/13 02:22:58;;;;;;;6.30;5.70;;;13.90;99.90;;;;;;5100354;28;20440;-83
2023/05/13 02:25:25;;;;;;;6.87;5.20;;;14.00;99.90;;;;;;5100389;28;20444;-82
2023/05/13 02:27:52;;;;;;;7.13;5.90;;;13.90;99.90;;;;;;5099675;28;20903;-82
2023/05/13 02:30:20;;;;;;;8.93;5.80;;;13.90;99.90;;;;;;5098829;28;20480;-82
2023/05/13 02:32:47;;;;;;;7.10;6.40;;;13.80;99.90;;;;;;5099364;28;20454;-82
2023/05/13 02:35:14;;;;;;;7.63;5.90;;;13.80;99.90;;;;;;5099240;28;20449;-83
2023/05/13 02:37:41;;;;;;;7.00;5.80;;;13.80;99.90;;;;;;5098694;28;20555;-83
2023/05/13 02:40:09;;;;;;;6.20;5.47;;;13.80;99.90;;;;;;5098676;28;20440;-83
2023/05/13 02:42:36;;;;;;;7.20;5.38;;;13.80;99.90;;;;;;5102414;28;20529;-81
2023/05/13 02:45:02;;;;;;;6.70;5.60;;;13.80;99.90;;;;;;5102463;28;20210;-83
2023/05/13 02:47:30;;;;;;;7.27;5.63;;;13.80;99.90;;;;;;5100241;28;20539;-83
2023/05/13 02:49:57;;;;;;;9.97;6.43;;;13.80;99.90;;;;;;5100064;28;20512;-83
2023/05/13 02:52:24;;;;;;;7.10;5.70;;;13.70;99.90;;;;;;5111057;28;20489;-82
2023/05/13 02:54:51;;;;;;;7.63;5.60;;;13.70;99.90;;;;;;5115578;28;20858;-82
2023/05/13 02:57:18;;;;;;;6.07;5.50;;;13.70;99.90;;;;;;5114526;28;20492;-82
2023/05/13 02:59:45;;;;;;;11.40;6.50;;;13.70;99.90;;;;;;5102584;28;20519;-84
2023/05/13 03:02:11;;;;;;;7.20;5.73;;;13.60;99.90;;;;;;5103594;28;20524;-83
2023/05/13 03:04:41;;;;;;;9.33;6.30;;;13.60;99.90;;;;;;5112313;28;20505;-82
2023/05/13 03:07:07;;;;;;;10.13;6.27;;;13.60;99.90;;;;;;5104610;28;20472;-82
2023/05/13 03:09:37;;;;;;;7.00;5.73;;;13.50;99.90;;;;;;5098511;28;20498;-83
2023/05/13 03:12:05;;;;;;;6.50;5.83;;;13.50;99.90;;;;;;5100579;28;20461;-83
2023/05/13 03:14:33;;;;;;;7.47;5.60;;;13.40;99.90;;;;;;5099226;28;20459;-82
2023/05/13 03:17:00;;;;;;;9.97;6.50;;;;;;;;;;5124059;22;20493;-87
2023/05/13 03:19:28;;;;;;;7.13;6.43;;;;;;;;;;5104758;28;20443;-86
2023/05/13 03:21:56;;;;;;;6.37;5.73;;;13.30;99.90;;;;;;5108067;28;20555;-85
2023/05/13 03:24:24;;;;;;;7.17;5.47;;;13.30;99.90;;;;;;5104957;28;21012;-85
2023/05/13 03:26:51;;;;;;;7.10;5.40;;;;;;;;;;5104840;28;20466;-86
2023/05/13 03:29:18;;;;;;;6.20;5.40;;;13.20;99.90;;;;;;5105412;28;20514;-86
2023/05/13 03:31:45;;;;;;;13.47;5.90;;;13.20;99.90;;;;;;5105575;28;20474;-85
2023/05/13 03:34:12;;;;;;;5.93;5.47;;;13.30;1.00;;;;;;5101165;28;20537;-85
2023/05/13 03:36:40;;;;;;;8.10;6.27;;;13.20;99.90;;;;;;5100674;28;20532;-85
2023/05/13 03:39:09;;;;;;;6.53;5.83;;;13.20;99.90;;;;;;5106902;28;20500;-86
2023/05/13 03:41:36;;;;;;;9.37;7.43;;;13.10;99.90;;;;;;5119050;28;20476;-85
2023/05/13 03:44:03;;;;;;;10.60;6.23;;;13.10;99.90;;;;;;5119328;28;20451;-85
2023/05/13 03:46:30;;;;;;;15.33;5.80;;;12.90;1.00;;;;;;5117281;28;20459;-85
2023/05/13 03:48:57;;;;;;;9.40;6.30;;;13.00;99.90;;;;;;5118863;28;20454;-85
2023/05/13 03:51:24;;;;;;;7.80;6.90;;;13.00;99.90;;;;;;5118517;28;20436;-85
2023/05/13 03:53:51;;;;;;;7.60;6.90;;;12.90;99.90;;;;;;5114773;28;20490;-86
2023/05/13 03:56:36;;;;;;;9.83;7.20;;;12.90;1.00;;;;;;5101565;28;20448;-86
2023/05/13 03:59:03;;;;;;;9.83;7.37;;;;;;;;;;5100729;28;20420;-85
2023/05/13 04:01:31;;;;;;;7.73;5.77;;;;;;;;;;5100859;28;20919;-86
2023/05/13 04:03:57;;;;;;;5.70;5.30;;;12.90;99.90;;;;;;5100328;28;20615;-86
2023/05/13 04:06:24;;;;;;;15.23;11.00;;;12.90;99.90;;;;;;5099534;28;20472;-85
2023/05/13 04:08:51;;;;;;;12.43;7.87;;;12.90;99.90;;;;;;5103903;28;20472;-85
2023/05/13 04:11:20;;;;;;;7.60;5.80;;;12.90;99.90;;;;;;5101291;28;20487;-86
2023/05/13 04:13:47;;;;;;;12.20;7.07;;;12.90;99.90;;;;;;5101108;28;20501;-86
2023/05/13 04:16:14;;;;;;;7.37;6.67;;;13.30;1.00;;;;;;5100566;28;20499;-86
2023/05/13 04:18:41;;;;;;;6.37;5.87;;;13.00;99.90;;;;;;5099888;28;20428;-86
2023/05/13 04:21:08;;;;;;;6.80;6.07;;;13.00;99.90;;;;;;5100145;28;20448;-86
2023/05/13 04:23:35;;;;;;;8.23;6.87;;;13.10;1.00;;;;;;5100689;28;20842;-85
2023/05/13 04:26:02;;;;;;;11.20;6.43;;;13.00;99.90;;;;;;5105380;28;20511;-86
2023/05/13 04:28:30;;;;;;;7.70;6.63;;;13.10;99.90;;;;;;5115303;28;20432;-85
2023/05/13 04:30:57;;;;;;;16.83;6.40;;;13.10;99.90;;;;;;5117236;28;20478;-86
2023/05/13 04:33:24;;;;;;;8.93;6.43;;;13.10;99.90;;;;;;5113236;28;20467;-85
2023/05/13 04:35:50;;;;;;;6.50;5.83;;;13.10;99.90;;;;;;5117104;28;20419;-86
2023/05/13 04:38:18;;;;;;;8.53;6.70;;;13.10;99.90;;;;;;5116103;28;20444;-86
2023/05/13 04:40:46;;;;;;;8.40;6.30;;;13.10;99.90;;;;;;5116222;28;20452;-87
2023/05/13 04:43:13;;;;;;;6.80;6.20;;;13.20;99.90;;;;;;5104342;28;20446;-85
2023/05/13 04:45:41;;;;;;;10.43;6.07;;;13.20;99.90;;;;;;5103126;28;20423;-86
2023/05/13 04:48:09;;;;;;;10.27;6.13;;;13.20;99.90;;;;;;5107387;28;20472;-88
2023/05/13 04:50:37;;;;;;;6.03;5.50;;;13.20;99.90;;;;;;5113727;28;20471;-86
2023/05/13 04:53:06;;;;;;;8.33;6.30;;;13.20;99.90;;;;;;5113316;28;20470;-86
2023/05/13 04:55:33;;;;;;;9.53;6.73;;;13.20;99.90;;;;;;5117191;28;20898;-85
2023/05/13 04:58:00;;;;;;;7.70;6.80;;;13.30;99.90;;;;;;5115058;28;20439;-85
2023/05/13 05:00:27;;;;;;;7.67;6.90;;;13.40;99.90;;;;;;5105279;28;20494;-85
2023/05/13 05:02:55;;;;;;;5.67;5.13;;;13.50;99.90;;;;;;5101271;28;20539;-86
2023/05/13 05:05:22;;;;;;;11.70;10.00;;;13.50;99.90;;;;;;5098563;28;20511;-85
2023/05/13 05:07:49;;;;;;;9.80;6.77;;;13.50;99.90;;;;;;5100683;28;20556;-85
2023/05/13 05:10:16;;;;;;;5.43;4.93;;;13.60;99.90;;;;;;5103945;28;20480;-86
2023/05/13 05:12:43;;;;;;;8.13;6.00;;;13.80;99.90;;;;;;5108926;28;20451;-86
2023/05/13 05:15:14;;;;;;;7.53;6.80;;;13.90;99.90;;;;;;5105824;28;20483;-86
2023/05/13 05:17:41;;;;;;;7.10;6.40;;;14.00;99.90;;;;;;5103869;28;21033;-86
2023/05/13 05:20:12;;;;;;;7.10;6.40;;;14.00;99.90;;;;;;5104984;28;20464;-85
2023/05/13 05:22:40;;;;;;;5.73;5.20;;;14.10;99.90;;;;;;5108710;28;20437;-86
2023/05/13 05:25:08;;;;;;;6.97;5.60;;;14.20;99.90;;;;;;5116541;28;20507;-84
2023/05/13 05:27:35;;;;;;;11.80;5.80;;;14.30;99.90;;;;;;5120839;28;20460;-85
2023/05/13 05:30:02;;;;;;;6.97;6.27;;;14.40;99.90;;;;;;5120193;28;20478;-85
2023/05/13 05:32:29;;;;;;;5.73;5.27;;;14.30;99.90;;;;;;5113893;28;20480;-85
2023/05/13 05:34:56;;;;;;;6.40;5.40;;;14.30;99.90;;;;;;5104793;28;20452;-85
2023/05/13 05:37:24;;;;;;;7.07;6.23;;;14.30;99.90;;;;;;5102811;28;20468;-85
2023/05/13 05:39:51;;;;;;;6.33;5.40;;;14.40;99.90;;;;;;5104684;28;20444;-86
2023/05/13 05:42:18;;;;;;;5.90;5.30;;;14.50;99.90;;;;;;5106036;28;20783;-86
2023/05/13 05:44:46;;;;;;;11.87;5.50;;;14.80;99.90;;;;;;5104285;28;20449;-86
2023/05/13 05:47:13;;;;;;;7.37;5.87;;;14.60;99.90;;;;;;5104001;28;20563;-86
2023/05/13 05:49:40;;;;;;;8.80;6.13;;;14.70;99.90;;;;;;5105490;28;20533;-85
2023/05/13 05:52:09;;;;;;;6.07;5.47;;;14.70;99.90;;;;;;5105968;28;20457;-88
2023/05/13 05:54:40;;;;;;;6.03;5.20;;;14.80;99.90;;;;;;5104243;28;21068;-85
2023/05/13 05:57:09;;;;;;;6.17;4.93;;;14.70;99.90;;;;;;5107074;28;20435;-85
2023/05/13 05:59:36;;;;;;;8.50;5.70;;;14.90;99.90;;;;;;5109968;28;20411;-85
2023/05/13 06:02:03;;;;;;;10.30;5.33;;;15.00;1.00;;;;;;5109289;28;20528;-87
2023/05/13 06:04:30;;;;;;;7.60;6.40;;;15.10;99.90;;;;;;5106297;28;20440;-86
2023/05/13 06:06:57;;;;;;;6.77;6.10;;;15.20;99.90;;;;;;5103320;28;20536;-86
2023/05/13 06:09:24;;;;;;;5.10;4.70;;;15.30;99.90;;;;;;5107287;28;20518;-85
2023/05/13 06:11:52;;;;;;;8.83;5.13;;;15.30;99.90;;;;;;5101175;28;20956;-86
2023/05/13 06:14:20;;;;;;;5.57;4.80;;;15.40;99.90;;;;;;5102066;28;20498;-86
2023/05/13 06:16:46;;;;;;;12.03;5.50;;;15.50;99.90;;;;;;5101773;28;20480;-86
2023/05/13 06:19:13;;;;;;;9.70;6.20;;;15.60;99.90;;;;;;5102906;28;20444;-85
2023/05/13 06:21:41;;;;;;;8.90;5.20;;;15.70;99.90;;;;;;5102380;28;20448;-84
2023/05/13 06:24:08;;;;;;;6.87;4.50;;;15.70;99.90;;;;;;5103044;28;20456;-86
2023/05/13 06:26:36;;;;;;;9.10;6.67;;;15.80;99.90;;;;;;5102482;28;20851;-84
2023/05/13 06:29:04;;;;;;;8.10;5.23;;;15.70;99.90;;;;;;5102691;28;20452;-85
2023/05/13 06:31:30;;;;;;;9.83;4.97;;;16.00;99.90;;;;;;5101772;28;21020;-86
2023/05/13 06:33:57;;;;;;;5.60;5.10;;;16.10;99.90;;;;;;5101729;28;20480;-84
2023/05/13 06:36:24;;;;;;;8.67;4.63;;;16.10;99.90;;;;;;5101559;28;20471;-85
2023/05/13 06:38:52;;;;;;;6.77;5.00;;;16.20;99.90;;;;;;5107701;28;20455;-85
2023/05/13 06:41:18;;;;;;;5.53;4.63;;;16.30;99.90;;;;;;5103365;28;20440;-85
2023/05/13 06:43:47;;;;;;;7.30;5.43;;;16.30;99.90;;;;;;5103123;28;20509;-86
2023/05/13 06:46:15;;;;;;;8.17;5.50;;;15.80;1.00;;;;;;5103522;28;20502;-86
2023/05/13 06:48:42;;;;;;;5.57;3.63;;;16.40;99.90;;;;;;5101148;28;20515;-86
2023/05/13 06:51:09;;;;;;;4.40;4.10;;;16.40;99.90;;;;;;5101969;28;20846;-86
2023/05/13 06:53:36;;;;;;;4.33;3.93;;;16.40;99.90;;;;;;5101912;28;20441;-86
2023/05/13 06:56:03;;;;;;;6.43;5.07;;;16.80;1.00;;;;;;5101315;28;20474;-85
2023/05/13 06:58:30;;;;;;;10.80;5.07;;;16.60;99.90;;;;;;5100503;28;20788;-84
2023/05/13 07:00:57;;;;;;;4.53;4.00;;;16.70;99.90;;;;;;5101359;28;20858;-85
2023/05/13 07:03:25;;;;;;;4.73;4.27;;;16.70;99.90;;;;;;5105808;28;20532;-84
2023/05/13 07:05:52;;;;;;;4.27;3.93;;;16.60;99.90;;;;;;5108157;28;20495;-84
2023/05/13 07:08:18;;;;;;;5.93;4.97;;;16.70;99.90;;;;;;5106923;28;20462;-86
2023/05/13 07:10:45;;;;;;;4.60;4.20;;;16.80;99.90;;;;;;5112439;28;20471;-86
2023/05/13 07:13:12;;;;;;;4.50;4.10;;;16.90;99.90;;;;;;5109077;28;20448;-86
2023/05/13 07:15:39;;;;;;;5.60;4.53;;;17.00;99.90;;;;;;5116273;28;20468;-84
2023/05/13 07:18:06;;;;;;;6.30;5.33;;;17.20;99.90;;;;;;5119223;28;20462;-85
2023/05/13 07:20:34;;;;;;;19.57;5.30;;;17.30;99.90;;;;;;5117884;28;20475;-85
2023/05/13 07:23:01;;;;;;;7.43;3.97;;;17.30;99.90;;;;;;5118020;28;20479;-85
2023/05/13 07:25:28;;;;;;;4.10;3.80;;;17.40;99.90;;;;;;5117315;28;20468;-85
2023/05/13 07:27:55;;;;;;;7.47;4.30;;;17.50;99.90;;;;;;5117945;28;20460;-85
2023/05/13 07:30:22;;;;;;;4.00;3.70;;;17.60;99.90;;;;;;5113535;28;20504;-84
2023/05/13 07:32:49;;;;;;;4.40;3.00;;;17.40;99.90;;;;;;5105435;28;20444;-84
2023/05/13 07:35:16;;;;;;;3.37;3.07;;;17.60;99.90;;;;;;5104416;28;20480;-85
2023/05/13 07:37:44;;;;;;;6.63;4.13;;;17.60;99.90;;;;;;5101118;28;20475;-85
2023/05/13 07:40:12;;;;;;;4.07;3.70;;;17.70;99.90;;;;;;5099528;28;20444;-85
2023/05/13 07:42:39;;;;;;;4.20;3.80;;;17.40;99.90;;;;;;5099033;28;20555;-84
2023/05/13 07:45:09;;;;;;;4.27;3.47;;;17.70;99.90;;;;;;5099628;28;20964;-86
2023/05/13 07:47:36;;;;;;;4.53;4.10;;;17.80;99.90;;;;;;5102341;28;20878;-85
2023/05/13 07:50:03;;;;;;;4.47;3.80;;;17.90;99.90;;;;;;5116271;28;20552;-84
2023/05/13 07:52:30;;;;;;;3.90;3.60;;;17.90;99.90;;;;;;5105775;28;20468;-85
2023/05/13 07:54:58;;;;;;;5.03;3.67;;;17.90;99.90;;;;;;5101712;28;20448;-84
2023/05/13 07:57:27;;;;;;;7.20;4.37;;;17.90;99.90;;;;;;5100084;28;20469;-86
2023/05/13 07:59:54;;;;;;;3.93;3.63;;;17.90;99.90;;;;;;5104269;28;20476;-84
2023/05/13 08:02:21;;;;;;;5.23;3.43;;;18.00;99.90;;;;;;5107924;28;20499;-85
2023/05/13 08:04:51;;;;;;;3.63;3.33;;;18.00;99.90;;;;;;5108153;28;20536;-84
2023/05/13 08:07:18;;;;;;;4.63;3.77;;;18.10;99.90;;;;;;5105612;28;20491;-87
2023/05/13 08:09:45;;;;;;;4.77;3.70;;;18.10;99.90;;;;;;5103498;28;20472;-85
2023/05/13 08:12:13;;;;;;;4.93;4.13;;;18.10;99.90;;;;;;5114262;28;20441;-85
2023/05/13 08:14:40;;;;;;;5.30;4.80;;;17.90;99.90;;;;;;5115669;28;20472;-86
2023/05/13 08:17:07;;;;;;;5.47;4.30;;;18.30;99.90;;;;;;5103373;28;20504;-85
2023/05/13 08:19:35;;;;;;;4.10;3.70;;;18.30;99.90;;;;;;5101521;28;20449;-85
2023/05/13 08:22:02;;;;;;;3.50;3.30;;;18.30;99.90;;;;;;5101459;28;20963;-85
2023/05/13 08:24:29;;;;;;;7.40;4.33;;;18.30;99.90;;;;;;5101627;28;20511;-84
2023/05/13 08:26:56;;;;;;;4.20;3.80;;;18.20;99.90;;;;;;5113729;28;20447;-84
2023/05/13 08:29:25;;;;;;;6.30;4.13;;;18.60;99.90;;;;;;5117198;28;20437;-84
2023/05/13 08:31:52;;;;;;;4.57;4.20;;;18.60;99.90;;;;;;5109309;28;20655;-85
2023/05/13 08:34:19;;;;;;;5.93;3.37;;;18.70;99.90;;;;;;5114653;28;20524;-84
2023/05/13 08:36:46;;;;;;;4.77;4.03;;;18.60;99.90;;;;;;5117209;28;20503;-84
2023/05/13 08:39:13;;;;;;;8.30;5.30;;;18.60;99.90;;;;;;5117625;28;20448;-85
2023/05/13 08:41:44;;;;;;;4.70;4.27;;;18.60;99.90;;;;;;5118295;28;20447;-84
2023/05/13 08:44:12;;;;;;;11.30;6.67;;;18.60;99.90;;;;;;5118847;28;20528;-86
2023/05/13 08:46:43;;;;;;;5.70;4.93;;;18.70;99.90;;;;;;5119935;28;20467;-85
2023/05/13 08:49:10;;;;;;;9.07;6.60;;;18.80;99.90;;;;;;5108656;28;20425;-86
2023/05/13 08:51:37;;;;;;;7.43;5.00;;;18.80;99.90;;;;;;5107721;28;20480;-86
2023/05/13 08:54:15;;;;;;;5.77;5.17;;;18.80;99.90;;;;;;5105899;28;20464;-84
2023/05/13 08:56:42;;;;;;;13.90;7.70;;;18.80;99.90;;;;;;5104657;28;20551;-85
2023/05/13 08:59:09;;;;;;;5.17;4.77;;;18.70;99.90;;;;;;5105870;28;20543;-86
2023/05/13 09:01:36;;;;;;;6.43;4.43;;;18.90;99.90;;;;;;5106792;28;20497;-86
2023/05/13 09:04:08;;;;;;;8.17;7.27;;;18.90;99.90;;;;;;5104880;28;20538;-86
2023/05/13 09:06:35;;;;;;;14.30;8.60;;;18.90;99.90;;;;;;5107311;28;20560;-86
2023/05/13 09:09:03;;;;;;;10.37;7.13;;;19.00;99.90;;;;;;5104333;28;20444;-87
2023/05/13 09:11:32;;;;;;;7.23;5.40;;;19.00;99.90;;;;;;5104126;28;20486;-86
2023/05/13 09:14:00;;;;;;;10.07;5.17;;;19.00;99.90;;;;;;5105974;28;20470;-86
2023/05/13 09:16:28;;;;;;;5.73;5.10;;;19.20;99.90;;;;;;5131947;22;20488;-82
2023/05/13 09:18:59;;;;;;;8.90;4.50;;;19.20;99.90;;;;;;5110617;28;20475;-83
2023/05/13 09:21:29;;;;;;;9.30;6.73;;;19.30;99.90;;;;;;5117188;28;20501;-83
2023/05/13 09:24:03;;;;;;;7.33;5.50;;;19.50;99.90;;;;;;5119619;28;20488;-82
2023/05/13 09:26:30;;;;;;;12.13;9.63;;;19.50;99.90;;;;;;5112503;28;20481;-84
2023/05/13 09:29:17;;;;;;;11.57;5.37;;;20.00;99.90;;;;;;5102901;28;20448;-84
2023/05/13 09:31:45;;;;;;;6.30;4.10;;;19.60;99.90;;;;;;5103700;28;20499;-83
2023/05/13 09:34:11;;;;;;;7.70;6.00;;;19.70;99.90;;;;;;5102034;28;20931;-84
2023/05/13 09:36:46;;;;;;;6.60;5.90;;;20.10;99.90;;;;;;5101631;28;20440;-83
2023/05/13 09:39:12;;;;;;;10.27;6.57;;;19.80;99.90;;;;;;5103133;28;20428;-83
2023/05/13 09:41:39;;;;;;;15.10;5.03;;;20.00;99.90;;;;;;5109180;28;20444;-82
2023/05/13 09:44:08;;;;;;;7.63;4.10;;;19.90;99.90;;;;;;5110559;28;20981;-84
2023/05/13 09:46:34;;;;;;;5.23;3.50;;;20.20;99.90;;;;;;5105087;28;20452;-82
2023/05/13 09:49:04;;;;;;;4.20;3.80;;;20.00;99.90;;;;;;5103184;28;20986;-83
2023/05/13 09:51:31;;;;;;;7.47;3.07;;;20.10;99.90;;;;;;5103092;28;20480;-83
2023/05/13 09:54:05;;;;;;;4.17;3.63;;;20.20;99.90;;;;;;5103249;28;20478;-83
2023/05/13 09:56:33;;;;;;;6.73;4.40;;;20.50;99.90;;;;;;5107074;28;20436;-83
2023/05/13 09:59:00;;;;;;;3.93;3.53;;;20.30;99.90;;;;;;5108100;28;20511;-82
2023/05/13 10:01:28;;;;;;;3.40;3.10;;;20.40;99.90;;;;;;5109031;28;20440;-82
2023/05/13 10:03:57;;;;;;;5.77;3.50;;;20.40;99.90;;;;;;5109142;28;20463;-83
2023/05/13 10:06:27;;;;;;;5.33;3.60;;;20.40;99.90;;;;;;5110325;28;20445;-82
2023/05/13 10:08:55;;;;;;;3.53;3.20;;;20.50;99.90;;;;;;5108666;28;20919;-83
2023/05/13 10:11:27;;;;;;;4.00;3.70;;;20.50;99.90;;;;;;5110736;28;20515;-83
2023/05/13 10:14:00;;;;;;;3.83;3.53;;;20.40;99.90;;;;;;5113251;28;20508;-82
2023/05/13 10:16:28;;;;;;;5.00;4.30;;;20.70;99.90;;;;;;5112625;28;20432;-83
2023/05/13 10:18:56;;;;;;;10.90;4.07;;;20.40;99.90;;;;;;5111557;28;20437;-82
2023/05/13 10:21:24;;;;;;;6.43;3.10;;;20.60;99.90;;;;;;5109974;28;20983;-84
2023/05/13 10:23:52;;;;;;;6.10;4.13;;;20.50;99.90;;;;;;5109337;28;20472;-83
2023/05/13 10:26:20;;;;;;;3.30;3.00;;;20.60;99.90;;;;;;5115461;28;20462;-82
2023/05/13 10:28:49;;;;;;;3.77;3.40;;;20.50;99.90;;;;;;5115763;28;20657;-82
2023/05/13 10:31:16;;;;;;;5.13;3.80;;;20.70;99.90;;;;;;5109567;28;20567;-83
2023/05/13 10:33:43;;;;;;;10.23;4.13;;;20.70;99.90;;;;;;5104302;28;20510;-83
2023/05/13 10:36:25;;;;;;;5.90;3.80;;;20.80;99.90;;;;;;5104201;28;20478;-83
2023/05/13 10:39:17;;;;;;;8.63;3.60;;;21.00;99.90;;;;;;5104274;28;20429;-83
2023/05/13 10:42:32;;;;;;;6.60;4.33;;;21.00;99.90;;;;;;5113752;28;20459;-81
2023/05/13 10:45:00;;;;;;;5.10;3.93;;;21.00;99.90;;;;;;5115727;28;20503;-83
2023/05/13 10:47:30;;;;;;;3.50;3.20;;;21.10;99.90;;;;;;5111454;28;20542;-83
2023/05/13 10:49:57;;;;;;;7.73;5.77;;;21.10;99.90;;;;;;5105729;28;20471;-83
2023/05/13 10:52:40;;;;;;;5.70;4.23;;;21.30;99.90;;;;;;5103141;28;20564;-82
2023/05/13 10:55:15;;;;;;;5.87;4.70;;;21.20;99.90;;;;;;5101763;28;20940;-83
2023/05/13 10:57:42;;;;;;;7.30;4.83;;;21.40;99.90;;;;;;5101223;28;20473;-83
2023/05/13 11:00:13;;;;;;;4.57;3.77;;;21.40;99.90;;;;;;5108830;28;20530;-83
2023/05/13 11:02:40;;;;;;;4.60;3.47;;;21.30;99.90;;;;;;5114666;28;20429;-83
2023/05/13 11:05:07;;;;;;;4.53;3.40;;;21.20;99.90;;;;;;5116524;28;20471;-83
2023/05/13 11:07:38;;;;;;;5.30;4.33;;;21.10;99.90;;;;;;5118271;28;20472;-81
2023/05/13 11:10:23;;;;;;;9.63;5.83;;;21.10;99.90;;;;;;5115414;28;20428;-82
2023/05/13 11:13:08;;;;;;;9.80;3.73;;;21.10;99.90;;;;;;5104445;28;20500;-82
2023/05/13 11:15:48;;;;;;;6.67;4.10;;;21.20;99.90;;;;;;5100423;28;20432;-83
2023/05/13 11:18:15;;;;;;;7.93;3.50;;;21.20;99.90;;;;;;5099196;28;21037;-83
2023/05/13 11:20:46;;;;;;;4.50;4.10;;;21.10;99.90;;;;;;5103316;28;20446;-84
2023/05/13 11:23:18;;;;;;;4.93;4.00;;;21.20;99.90;;;;;;5107771;28;20455;-82
2023/05/13 11:25:45;;;;;;;6.50;4.30;;;21.20;99.90;;;;;;5112319;28;20455;-82
2023/05/13 11:28:17;;;;;;;7.50;4.83;;;21.20;99.90;;;;;;5101809;28;20555;-83
2023/05/13 11:30:55;;;;;;;4.37;3.73;;;21.40;99.90;;;;;;5101158;28;20421;-83
2023/05/13 11:33:22;;;;;;;7.77;5.17;;;;;;;;;;5100714;28;20474;-83
2023/05/13 11:35:56;;;;;;;9.07;4.20;;;21.20;99.90;;;;;;5099936;28;20458;-83
2023/05/13 11:38:24;;;;;;;18.90;5.47;;;21.20;99.90;;;;;;5101288;28;20459;-83
2023/05/13 11:40:51;;;;;;;10.90;4.60;;;21.30;99.90;;;;;;5105415;28;20447;-83
2023/05/13 11:43:21;;;;;;;4.43;4.03;;;21.40;99.90;;;;;;5106380;28;20934;-83
2023/05/13 11:45:48;;;;;;;5.40;3.17;;;21.40;99.90;;;;;;5104970;28;20835;-82
2023/05/13 11:48:21;;;;;;;8.03;3.37;;;21.40;99.90;;;;;;5102094;28;20502;-83
2023/05/13 11:50:50;;;;;;;9.83;3.23;;;21.50;99.90;;;;;;5100407;28;20507;-82
2023/05/13 11:53:21;;;;;;;5.30;2.80;;;21.60;99.90;;;;;;5100538;28;20536;-82
2023/05/13 11:55:49;;;;;;;5.47;3.60;;;21.70;99.90;;;;;;5108257;28;20903;-83
2023/05/13 11:58:16;;;;;;;6.17;3.13;;;21.60;99.90;;;;;;5101637;28;20467;-83
2023/05/13 12:00:43;;;;;;;4.93;2.90;;;21.50;99.90;;;;;;5099427;28;20451;-83
2023/05/13 12:03:12;;;;;;;4.80;3.00;;;21.30;99.90;;;;;;5100026;28;20435;-83
2023/05/13 12:05:40;;;;;;;5.03;3.70;;;21.30;99.90;;;;;;5100723;28;20485;-84
2023/05/13 12:08:08;;;;;;;7.70;3.67;;;21.30;99.90;;;;;;5111708;28;20471;-83
2023/05/13 12:10:42;;;;;;;5.97;3.43;;;21.40;99.90;;;;;;5114379;28;20508;-82
2023/05/13 12:13:09;;;;;;;7.77;3.40;;;21.70;99.90;;;;;;5101487;28;20496;-83
2023/05/13 12:15:35;;;;;;;4.57;3.90;;;21.50;99.90;;;;;;5107762;28;20457;-83
2023/05/13 12:18:02;;;;;;;4.50;4.10;;;21.40;99.90;;;;;;5103881;28;20571;-84
2023/05/13 12:20:29;;;;;;;4.67;3.60;;;21.50;99.90;;;;;;5105080;28;20444;-82
2023/05/13 12:23:00;;;;;;;3.90;3.50;;;21.60;99.90;;;;;;5105025;28;20471;-83
2023/05/13 12:25:46;;;;;;;5.00;3.50;;;21.80;99.90;;;;;;5107297;28;20428;-84
2023/05/13 12:28:16;;;;;;;5.90;2.87;;;21.90;99.90;;;;;;5103671;28;20460;-83
2023/05/13 12:30:48;;;;;;;4.30;3.30;;;21.90;99.90;;;;;;5105746;28;20440;-84
2023/05/13 12:33:17;;;;;;;8.20;5.17;;;21.90;99.90;;;;;;5105639;28;20548;-81
2023/05/13 12:35:44;;;;;;;17.60;8.50;;;21.90;99.90;;;;;;5108345;28;20441;-83
2023/05/13 12:38:17;;;;;;;13.53;5.90;;;21.80;99.90;;;;;;5103858;28;21059;-84
2023/05/13 12:40:45;;;;;;;5.03;3.80;;;21.60;99.90;;;;;;5110989;28;20432;-83
2023/05/13 12:43:12;;;;;;;7.97;4.40;;;21.60;99.90;;;;;;5117993;28;20444;-82
2023/05/13 12:45:41;;;;;;;9.73;4.20;;;21.50;99.90;;;;;;5110296;28;20453;-82
2023/05/13 12:48:07;;;;;;;10.27;5.27;;;21.50;99.90;;;;;;5106182;28;20535;-84
2023/05/13 12:50:34;;;;;;;6.07;5.07;;;21.60;99.90;;;;;;5104335;28;20444;-84
2023/05/13 12:53:01;;;;;;;12.13;6.40;;;21.70;99.90;;;;;;5103534;28;20846;-84
2023/05/13 12:55:30;;;;;;;5.60;4.70;;;21.90;99.90;;;;;;5103075;28;20448;-83